sensor_id;sensor_type;location;lat;lon;timestamp;P1;durP1;ratioP1;P2;durP2;ratioP2
16393;SDS011;8306;51.128;4.476;2023-04-03T00:01:24;5.13;;;4.73;;
16393;SDS011;8306;51.128;4.476;2023-04-03T00:03:50;4.43;;;4.07;;
16393;SDS011;8306;51.128;4.476;2023-04-03T00:06:16;4.63;;;4.23;;
16393;SDS011;8306;51.128;4.476;2023-04-03T00:08:43;5.17;;;4.40;;
16393;SDS011;8306;51.128;4.476;2023-04-03T00:11:09;5.07;;;4.67;;
16393;SDS011;8306;51.128;4.476;2023-04-03T00:13:36;5.17;;;4.77;;
16393;SDS011;8306;51.128;4.476;2023-04-03T00:16:02;4.90;;;4.50;;
16393;SDS011;8306;51.128;4.476;2023-04-03T00:18:29;5.53;;;5.03;;
16393;SDS011;8306;51.128;4.476;2023-04-03T00:20:55;5.67;;;5.17;;
16393;SDS011;8306;51.128;4.476;2023-04-03T00:23:22;5.40;;;4.90;;
16393;SDS011;8306;51.128;4.476;2023-04-03T00:25:48;7.30;;;5.10;;
16393;SDS011;8306;51.128;4.476;2023-04-03T00:28:15;5.57;;;5.07;;
16393;SDS011;8306;51.128;4.476;2023-04-03T00:30:41;7.63;;;5.00;;
16393;SDS011;8306;51.128;4.476;2023-04-03T00:33:09;5.10;;;4.60;;
16393;SDS011;8306;51.128;4.476;2023-04-03T00:35:34;5.47;;;4.97;;
16393;SDS011;8306;51.128;4.476;2023-04-03T00:38:01;5.30;;;4.80;;
16393;SDS011;8306;51.128;4.476;2023-04-03T00:40:27;4.93;;;4.53;;
16393;SDS011;8306;51.128;4.476;2023-04-03T00:42:57;5.80;;;5.13;;
16393;SDS011;8306;51.128;4.476;2023-04-03T00:45:25;5.30;;;4.67;;
16393;SDS011;8306;51.128;4.476;2023-04-03T00:47:49;4.37;;;4.07;;
16393;SDS011;8306;51.128;4.476;2023-04-03T00:50:15;5.57;;;4.77;;
16393;SDS011;8306;51.128;4.476;2023-04-03T00:52:42;5.57;;;4.97;;
16393;SDS011;8306;51.128;4.476;2023-04-03T00:55:08;4.97;;;4.47;;
16393;SDS011;8306;51.128;4.476;2023-04-03T00:57:35;5.40;;;5.00;;
16393;SDS011;8306;51.128;4.476;2023-04-03T01:00:05;5.30;;;4.80;;
16393;SDS011;8306;51.128;4.476;2023-04-03T01:02:31;5.33;;;4.63;;
16393;SDS011;8306;51.128;4.476;2023-04-03T01:04:57;4.67;;;4.27;;
16393;SDS011;8306;51.128;4.476;2023-04-03T01:07:26;5.90;;;4.73;;
16393;SDS011;8306;51.128;4.476;2023-04-03T01:09:51;5.07;;;4.63;;
16393;SDS011;8306;51.128;4.476;2023-04-03T01:12:18;4.50;;;4.20;;
16393;SDS011;8306;51.128;4.476;2023-04-03T01:14:46;5.90;;;5.40;;
16393;SDS011;8306;51.128;4.476;2023-04-03T01:20:02;5.30;;;4.90;;
16393;SDS011;8306;51.128;4.476;2023-04-03T01:22:39;5.63;;;5.13;;
16393;SDS011;8306;51.128;4.476;2023-04-03T01:25:02;5.70;;;4.63;;
16393;SDS011;8306;51.128;4.476;2023-04-03T01:27:28;5.97;;;5.40;;
16393;SDS011;8306;51.128;4.476;2023-04-03T01:29:55;6.10;;;5.60;;
16393;SDS011;8306;51.128;4.476;2023-04-03T01:32:21;5.53;;;5.13;;
16393;SDS011;8306;51.128;4.476;2023-04-03T01:34:48;7.00;;;5.20;;
16393;SDS011;8306;51.128;4.476;2023-04-03T01:37:14;6.57;;;6.00;;
16393;SDS011;8306;51.128;4.476;2023-04-03T01:39:41;5.97;;;5.47;;
16393;SDS011;8306;51.128;4.476;2023-04-03T01:42:07;7.37;;;5.57;;
16393;SDS011;8306;51.128;4.476;2023-04-03T01:44:34;6.20;;;5.63;;
16393;SDS011;8306;51.128;4.476;2023-04-03T01:47:00;6.13;;;5.73;;
16393;SDS011;8306;51.128;4.476;2023-04-03T01:49:27;6.60;;;6.00;;
16393;SDS011;8306;51.128;4.476;2023-04-03T01:51:53;5.57;;;5.07;;
16393;SDS011;8306;51.128;4.476;2023-04-03T01:54:20;5.30;;;4.87;;
16393;SDS011;8306;51.128;4.476;2023-04-03T01:56:46;5.87;;;5.37;;
16393;SDS011;8306;51.128;4.476;2023-04-03T01:59:13;5.70;;;5.30;;
16393;SDS011;8306;51.128;4.476;2023-04-03T02:01:39;5.63;;;5.20;;
16393;SDS011;8306;51.128;4.476;2023-04-03T02:04:05;6.47;;;5.97;;
16393;SDS011;8306;51.128;4.476;2023-04-03T02:06:32;6.00;;;5.50;;
16393;SDS011;8306;51.128;4.476;2023-04-03T02:08:58;6.27;;;5.60;;
16393;SDS011;8306;51.128;4.476;2023-04-03T02:11:25;6.33;;;5.80;;
16393;SDS011;8306;51.128;4.476;2023-04-03T02:13:51;6.50;;;6.00;;
16393;SDS011;8306;51.128;4.476;2023-04-03T02:16:18;6.20;;;5.60;;
16393;SDS011;8306;51.128;4.476;2023-04-03T02:18:45;6.60;;;6.00;;
16393;SDS011;8306;51.128;4.476;2023-04-03T02:21:11;6.30;;;5.73;;
16393;SDS011;8306;51.128;4.476;2023-04-03T02:23:38;6.43;;;5.87;;
16393;SDS011;8306;51.128;4.476;2023-04-03T02:26:08;5.30;;;4.90;;
16393;SDS011;8306;51.128;4.476;2023-04-03T02:28:31;5.83;;;5.33;;
16393;SDS011;8306;51.128;4.476;2023-04-03T02:30:58;5.27;;;4.97;;
16393;SDS011;8306;51.128;4.476;2023-04-03T02:33:24;6.13;;;5.73;;
16393;SDS011;8306;51.128;4.476;2023-04-03T02:35:54;6.60;;;6.10;;
16393;SDS011;8306;51.128;4.476;2023-04-03T02:38:20;6.63;;;6.03;;
16393;SDS011;8306;51.128;4.476;2023-04-03T02:40:46;6.97;;;6.33;;
16393;SDS011;8306;51.128;4.476;2023-04-03T02:43:13;6.13;;;5.70;;
16393;SDS011;8306;51.128;4.476;2023-04-03T02:45:39;6.77;;;6.20;;
16393;SDS011;8306;51.128;4.476;2023-04-03T02:48:06;6.53;;;6.03;;
16393;SDS011;8306;51.128;4.476;2023-04-03T02:50:32;6.13;;;5.63;;
16393;SDS011;8306;51.128;4.476;2023-04-03T02:52:59;7.17;;;6.30;;
16393;SDS011;8306;51.128;4.476;2023-04-03T02:55:25;5.53;;;5.13;;
16393;SDS011;8306;51.128;4.476;2023-04-03T02:57:52;6.17;;;5.60;;
16393;SDS011;8306;51.128;4.476;2023-04-03T03:00:19;6.10;;;5.57;;
16393;SDS011;8306;51.128;4.476;2023-04-03T03:02:45;6.57;;;6.00;;
16393;SDS011;8306;51.128;4.476;2023-04-03T03:05:11;5.93;;;5.43;;
16393;SDS011;8306;51.128;4.476;2023-04-03T03:07:38;5.67;;;5.17;;
16393;SDS011;8306;51.128;4.476;2023-04-03T03:10:04;6.57;;;6.07;;
16393;SDS011;8306;51.128;4.476;2023-04-03T03:12:31;5.67;;;5.27;;
16393;SDS011;8306;51.128;4.476;2023-04-03T03:14:57;6.77;;;6.17;;
16393;SDS011;8306;51.128;4.476;2023-04-03T03:17:24;7.17;;;6.57;;
16393;SDS011;8306;51.128;4.476;2023-04-03T03:19:50;7.10;;;6.53;;
16393;SDS011;8306;51.128;4.476;2023-04-03T03:22:17;6.83;;;6.23;;
16393;SDS011;8306;51.128;4.476;2023-04-03T03:24:43;7.30;;;6.70;;
16393;SDS011;8306;51.128;4.476;2023-04-03T03:27:10;7.13;;;6.53;;
16393;SDS011;8306;51.128;4.476;2023-04-03T03:29:36;6.80;;;6.30;;
16393;SDS011;8306;51.128;4.476;2023-04-03T03:32:03;6.33;;;5.83;;
16393;SDS011;8306;51.128;4.476;2023-04-03T03:34:29;7.83;;;7.03;;
16393;SDS011;8306;51.128;4.476;2023-04-03T03:36:56;7.07;;;6.47;;
16393;SDS011;8306;51.128;4.476;2023-04-03T03:39:22;7.63;;;7.03;;
16393;SDS011;8306;51.128;4.476;2023-04-03T03:41:49;8.33;;;7.63;;
16393;SDS011;8306;51.128;4.476;2023-04-03T03:44:15;7.17;;;6.57;;
16393;SDS011;8306;51.128;4.476;2023-04-03T03:46:42;8.37;;;7.57;;
16393;SDS011;8306;51.128;4.476;2023-04-03T03:49:08;8.40;;;7.60;;
16393;SDS011;8306;51.128;4.476;2023-04-03T03:51:35;9.40;;;8.70;;
16393;SDS011;8306;51.128;4.476;2023-04-03T03:54:01;6.87;;;6.20;;
16393;SDS011;8306;51.128;4.476;2023-04-03T03:56:27;9.00;;;8.20;;
16393;SDS011;8306;51.128;4.476;2023-04-03T03:58:54;8.40;;;7.80;;
16393;SDS011;8306;51.128;4.476;2023-04-03T04:01:20;8.60;;;7.93;;
16393;SDS011;8306;51.128;4.476;2023-04-03T04:03:47;7.97;;;7.37;;
16393;SDS011;8306;51.128;4.476;2023-04-03T04:06:13;9.47;;;8.67;;
16393;SDS011;8306;51.128;4.476;2023-04-03T04:08:40;7.23;;;6.60;;
16393;SDS011;8306;51.128;4.476;2023-04-03T04:11:06;7.63;;;7.07;;
16393;SDS011;8306;51.128;4.476;2023-04-03T04:13:33;9.37;;;8.57;;
16393;SDS011;8306;51.128;4.476;2023-04-03T04:15:59;9.83;;;8.93;;
16393;SDS011;8306;51.128;4.476;2023-04-03T04:18:26;7.60;;;7.10;;
16393;SDS011;8306;51.128;4.476;2023-04-03T04:20:52;9.00;;;8.30;;
16393;SDS011;8306;51.128;4.476;2023-04-03T04:23:19;10.60;;;9.70;;
16393;SDS011;8306;51.128;4.476;2023-04-03T04:25:45;11.03;;;9.93;;
16393;SDS011;8306;51.128;4.476;2023-04-03T04:28:12;8.67;;;8.07;;
16393;SDS011;8306;51.128;4.476;2023-04-03T04:30:38;7.77;;;7.17;;
16393;SDS011;8306;51.128;4.476;2023-04-03T04:33:05;9.10;;;8.40;;
16393;SDS011;8306;51.128;4.476;2023-04-03T04:35:31;7.70;;;7.20;;
16393;SDS011;8306;51.128;4.476;2023-04-03T04:37:58;10.90;;;10.10;;
16393;SDS011;8306;51.128;4.476;2023-04-03T04:40:24;10.17;;;9.27;;
16393;SDS011;8306;51.128;4.476;2023-04-03T04:42:51;10.67;;;9.67;;
16393;SDS011;8306;51.128;4.476;2023-04-03T04:45:17;11.53;;;10.63;;
16393;SDS011;8306;51.128;4.476;2023-04-03T04:47:43;11.23;;;10.33;;
16393;SDS011;8306;51.128;4.476;2023-04-03T04:50:10;11.40;;;10.30;;
16393;SDS011;8306;51.128;4.476;2023-04-03T04:52:37;12.47;;;11.27;;
16393;SDS011;8306;51.128;4.476;2023-04-03T04:55:03;12.37;;;11.37;;
16393;SDS011;8306;51.128;4.476;2023-04-03T04:57:29;11.53;;;10.63;;
16393;SDS011;8306;51.128;4.476;2023-04-03T04:59:56;12.67;;;11.37;;
16393;SDS011;8306;51.128;4.476;2023-04-03T05:02:22;12.87;;;11.60;;
16393;SDS011;8306;51.128;4.476;2023-04-03T05:04:49;13.40;;;12.03;;
16393;SDS011;8306;51.128;4.476;2023-04-03T05:07:15;13.63;;;11.37;;
16393;SDS011;8306;51.128;4.476;2023-04-03T05:09:42;8.77;;;8.07;;
16393;SDS011;8306;51.128;4.476;2023-04-03T05:12:08;13.13;;;11.97;;
16393;SDS011;8306;51.128;4.476;2023-04-03T05:14:35;12.07;;;11.07;;
16393;SDS011;8306;51.128;4.476;2023-04-03T05:17:01;12.20;;;11.10;;
16393;SDS011;8306;51.128;4.476;2023-04-03T05:19:28;12.37;;;11.37;;
16393;SDS011;8306;51.128;4.476;2023-04-03T05:21:54;11.77;;;10.70;;
16393;SDS011;8306;51.128;4.476;2023-04-03T05:24:21;14.57;;;13.20;;
16393;SDS011;8306;51.128;4.476;2023-04-03T05:26:47;14.30;;;12.87;;
16393;SDS011;8306;51.128;4.476;2023-04-03T05:29:14;12.40;;;11.30;;
16393;SDS011;8306;51.128;4.476;2023-04-03T05:31:40;12.73;;;11.63;;
16393;SDS011;8306;51.128;4.476;2023-04-03T05:34:07;12.43;;;11.23;;
16393;SDS011;8306;51.128;4.476;2023-04-03T05:36:33;11.37;;;10.40;;
16393;SDS011;8306;51.128;4.476;2023-04-03T05:39:00;12.30;;;11.27;;
16393;SDS011;8306;51.128;4.476;2023-04-03T05:41:26;12.10;;;10.93;;
16393;SDS011;8306;51.128;4.476;2023-04-03T05:43:53;9.67;;;8.87;;
16393;SDS011;8306;51.128;4.476;2023-04-03T05:46:19;10.33;;;9.43;;
16393;SDS011;8306;51.128;4.476;2023-04-03T05:48:46;8.73;;;8.10;;
16393;SDS011;8306;51.128;4.476;2023-04-03T05:51:16;7.10;;;6.50;;
16393;SDS011;8306;51.128;4.476;2023-04-03T05:53:41;7.10;;;6.50;;
16393;SDS011;8306;51.128;4.476;2023-04-03T05:56:08;6.60;;;6.00;;
16393;SDS011;8306;51.128;4.476;2023-04-03T05:58:34;6.10;;;5.60;;
16393;SDS011;8306;51.128;4.476;2023-04-03T06:01:01;6.33;;;5.23;;
16393;SDS011;8306;51.128;4.476;2023-04-03T06:03:27;5.20;;;4.80;;
16393;SDS011;8306;51.128;4.476;2023-04-03T06:05:54;5.43;;;5.00;;
16393;SDS011;8306;51.128;4.476;2023-04-03T06:08:20;5.17;;;4.77;;
16393;SDS011;8306;51.128;4.476;2023-04-03T06:10:47;4.93;;;4.47;;
16393;SDS011;8306;51.128;4.476;2023-04-03T06:13:13;5.47;;;4.97;;
16393;SDS011;8306;51.128;4.476;2023-04-03T06:15:40;5.23;;;4.77;;
16393;SDS011;8306;51.128;4.476;2023-04-03T06:18:06;4.90;;;4.50;;
16393;SDS011;8306;51.128;4.476;2023-04-03T06:20:33;5.10;;;4.70;;
16393;SDS011;8306;51.128;4.476;2023-04-03T06:22:59;4.97;;;4.57;;
16393;SDS011;8306;51.128;4.476;2023-04-03T06:25:26;5.13;;;4.63;;
16393;SDS011;8306;51.128;4.476;2023-04-03T06:27:52;4.90;;;4.50;;
16393;SDS011;8306;51.128;4.476;2023-04-03T06:30:19;4.73;;;4.23;;
16393;SDS011;8306;51.128;4.476;2023-04-03T06:32:45;3.73;;;3.43;;
16393;SDS011;8306;51.128;4.476;2023-04-03T06:35:12;4.90;;;4.50;;
16393;SDS011;8306;51.128;4.476;2023-04-03T06:37:38;5.17;;;3.87;;
16393;SDS011;8306;51.128;4.476;2023-04-03T06:40:05;4.13;;;3.83;;
16393;SDS011;8306;51.128;4.476;2023-04-03T06:42:32;4.53;;;3.47;;
16393;SDS011;8306;51.128;4.476;2023-04-03T06:44:58;4.70;;;4.00;;
16393;SDS011;8306;51.128;4.476;2023-04-03T06:47:25;3.93;;;3.57;;
16393;SDS011;8306;51.128;4.476;2023-04-03T06:49:51;3.93;;;3.50;;
16393;SDS011;8306;51.128;4.476;2023-04-03T06:52:18;3.63;;;3.33;;
16393;SDS011;8306;51.128;4.476;2023-04-03T06:54:44;6.33;;;3.50;;
16393;SDS011;8306;51.128;4.476;2023-04-03T06:57:10;3.67;;;3.20;;
16393;SDS011;8306;51.128;4.476;2023-04-03T06:59:37;4.03;;;3.40;;
16393;SDS011;8306;51.128;4.476;2023-04-03T07:02:04;3.70;;;3.20;;
16393;SDS011;8306;51.128;4.476;2023-04-03T07:04:30;3.33;;;3.03;;
16393;SDS011;8306;51.128;4.476;2023-04-03T07:06:56;3.30;;;3.00;;
16393;SDS011;8306;51.128;4.476;2023-04-03T07:09:23;4.83;;;3.23;;
16393;SDS011;8306;51.128;4.476;2023-04-03T07:11:49;6.30;;;3.13;;
16393;SDS011;8306;51.128;4.476;2023-04-03T07:14:16;3.10;;;2.77;;
16393;SDS011;8306;51.128;4.476;2023-04-03T07:16:42;3.30;;;2.97;;
16393;SDS011;8306;51.128;4.476;2023-04-03T07:19:09;3.43;;;3.13;;
16393;SDS011;8306;51.128;4.476;2023-04-03T07:21:35;4.23;;;3.10;;
16393;SDS011;8306;51.128;4.476;2023-04-03T07:24:02;3.07;;;2.50;;
16393;SDS011;8306;51.128;4.476;2023-04-03T07:26:28;2.90;;;2.60;;
16393;SDS011;8306;51.128;4.476;2023-04-03T07:28:55;2.97;;;2.50;;
16393;SDS011;8306;51.128;4.476;2023-04-03T07:31:21;3.13;;;2.57;;
16393;SDS011;8306;51.128;4.476;2023-04-03T07:33:48;3.80;;;2.50;;
16393;SDS011;8306;51.128;4.476;2023-04-03T07:36:16;3.20;;;2.40;;
16393;SDS011;8306;51.128;4.476;2023-04-03T07:38:41;3.80;;;2.73;;
16393;SDS011;8306;51.128;4.476;2023-04-03T07:41:07;3.60;;;2.50;;
16393;SDS011;8306;51.128;4.476;2023-04-03T07:43:34;3.83;;;2.40;;
16393;SDS011;8306;51.128;4.476;2023-04-03T07:46:00;4.00;;;2.70;;
16393;SDS011;8306;51.128;4.476;2023-04-03T07:48:26;3.37;;;2.10;;
16393;SDS011;8306;51.128;4.476;2023-04-03T07:50:53;3.47;;;2.27;;
16393;SDS011;8306;51.128;4.476;2023-04-03T07:53:19;3.10;;;2.63;;
16393;SDS011;8306;51.128;4.476;2023-04-03T07:55:46;3.17;;;2.47;;
16393;SDS011;8306;51.128;4.476;2023-04-03T07:58:13;2.63;;;2.27;;
16393;SDS011;8306;51.128;4.476;2023-04-03T08:00:39;3.40;;;2.47;;
16393;SDS011;8306;51.128;4.476;2023-04-03T08:03:06;2.37;;;2.17;;
16393;SDS011;8306;51.128;4.476;2023-04-03T08:05:35;7.47;;;2.70;;
16393;SDS011;8306;51.128;4.476;2023-04-03T08:07:58;2.87;;;2.20;;
16393;SDS011;8306;51.128;4.476;2023-04-03T08:10:25;3.13;;;2.13;;
16393;SDS011;8306;51.128;4.476;2023-04-03T08:12:51;2.40;;;2.20;;
16393;SDS011;8306;51.128;4.476;2023-04-03T08:15:18;2.60;;;1.93;;
16393;SDS011;8306;51.128;4.476;2023-04-03T08:17:44;2.20;;;2.00;;
16393;SDS011;8306;51.128;4.476;2023-04-03T08:20:11;2.47;;;2.10;;
16393;SDS011;8306;51.128;4.476;2023-04-03T08:22:37;3.53;;;2.43;;
16393;SDS011;8306;51.128;4.476;2023-04-03T08:25:04;2.63;;;1.93;;
16393;SDS011;8306;51.128;4.476;2023-04-03T08:27:30;2.70;;;2.03;;
16393;SDS011;8306;51.128;4.476;2023-04-03T08:29:57;3.43;;;2.03;;
16393;SDS011;8306;51.128;4.476;2023-04-03T08:32:23;2.80;;;2.27;;
16393;SDS011;8306;51.128;4.476;2023-04-03T08:34:50;4.07;;;1.77;;
16393;SDS011;8306;51.128;4.476;2023-04-03T08:37:16;2.93;;;1.90;;
16393;SDS011;8306;51.128;4.476;2023-04-03T08:39:43;2.87;;;1.70;;
16393;SDS011;8306;51.128;4.476;2023-04-03T08:42:15;3.00;;;2.20;;
16393;SDS011;8306;51.128;4.476;2023-04-03T08:45:01;2.30;;;1.80;;
16393;SDS011;8306;51.128;4.476;2023-04-03T08:47:38;2.97;;;2.00;;
16393;SDS011;8306;51.128;4.476;2023-04-03T08:50:05;2.60;;;1.90;;
16393;SDS011;8306;51.128;4.476;2023-04-03T08:52:41;2.50;;;1.87;;
16393;SDS011;8306;51.128;4.476;2023-04-03T08:55:22;2.50;;;1.70;;
16393;SDS011;8306;51.128;4.476;2023-04-03T08:57:57;2.73;;;1.60;;
16393;SDS011;8306;51.128;4.476;2023-04-03T09:00:20;2.80;;;1.87;;
16393;SDS011;8306;51.128;4.476;2023-04-03T09:02:49;2.10;;;1.60;;
16393;SDS011;8306;51.128;4.476;2023-04-03T09:05:29;2.93;;;1.67;;
16393;SDS011;8306;51.128;4.476;2023-04-03T09:07:47;2.63;;;1.50;;
16393;SDS011;8306;51.128;4.476;2023-04-03T09:10:14;2.23;;;1.80;;
16393;SDS011;8306;51.128;4.476;2023-04-03T09:12:44;2.23;;;1.57;;
16393;SDS011;8306;51.128;4.476;2023-04-03T09:15:22;2.47;;;1.60;;
16393;SDS011;8306;51.128;4.476;2023-04-03T09:17:59;2.83;;;1.47;;
16393;SDS011;8306;51.128;4.476;2023-04-03T09:24:00;2.10;;;1.40;;
16393;SDS011;8306;51.128;4.476;2023-04-03T09:26:17;1.90;;;1.20;;
16393;SDS011;8306;51.128;4.476;2023-04-03T09:28:34;2.77;;;1.60;;
16393;SDS011;8306;51.128;4.476;2023-04-03T09:31:00;3.10;;;1.37;;
16393;SDS011;8306;51.128;4.476;2023-04-03T09:33:26;2.47;;;1.30;;
16393;SDS011;8306;51.128;4.476;2023-04-03T09:35:53;2.27;;;1.40;;
16393;SDS011;8306;51.128;4.476;2023-04-03T09:38:20;3.10;;;1.50;;
16393;SDS011;8306;51.128;4.476;2023-04-03T09:40:49;2.87;;;1.50;;
16393;SDS011;8306;51.128;4.476;2023-04-03T09:43:22;2.10;;;1.30;;
16393;SDS011;8306;51.128;4.476;2023-04-03T09:45:47;1.70;;;1.40;;
16393;SDS011;8306;51.128;4.476;2023-04-03T09:50:53;2.00;;;1.80;;
16393;SDS011;8306;51.128;4.476;2023-04-03T09:53:37;2.43;;;1.60;;
16393;SDS011;8306;51.128;4.476;2023-04-03T09:56:25;3.13;;;1.50;;
16393;SDS011;8306;51.128;4.476;2023-04-03T09:59:13;3.30;;;1.40;;
16393;SDS011;8306;51.128;4.476;2023-04-03T10:01:05;2.30;;;1.77;;
16393;SDS011;8306;51.128;4.476;2023-04-03T10:03:35;3.57;;;1.40;;
16393;SDS011;8306;51.128;4.476;2023-04-03T10:06:01;2.53;;;1.40;;
16393;SDS011;8306;51.128;4.476;2023-04-03T10:08:33;2.67;;;1.30;;
16393;SDS011;8306;51.128;4.476;2023-04-03T10:11:15;2.83;;;1.40;;
16393;SDS011;8306;51.128;4.476;2023-04-03T10:13:50;2.17;;;1.30;;
16393;SDS011;8306;51.128;4.476;2023-04-03T10:16:23;3.17;;;1.40;;
16393;SDS011;8306;51.128;4.476;2023-04-03T10:18:49;3.03;;;1.70;;
16393;SDS011;8306;51.128;4.476;2023-04-03T10:23:43;2.80;;;1.50;;
16393;SDS011;8306;51.128;4.476;2023-04-03T10:31:21;1.57;;;1.00;;
16393;SDS011;8306;51.128;4.476;2023-04-03T10:44:48;1.17;;;1.07;;
16393;SDS011;8306;51.128;4.476;2023-04-03T10:58:24;1.63;;;1.20;;
16393;SDS011;8306;51.128;4.476;2023-04-03T11:01:00;2.30;;;1.30;;
16393;SDS011;8306;51.128;4.476;2023-04-03T11:03:31;2.00;;;1.10;;
16393;SDS011;8306;51.128;4.476;2023-04-03T11:05:56;1.80;;;1.10;;
16393;SDS011;8306;51.128;4.476;2023-04-03T11:08:33;1.77;;;1.20;;
16393;SDS011;8306;51.128;4.476;2023-04-03T11:10:59;2.00;;;1.10;;
16393;SDS011;8306;51.128;4.476;2023-04-03T11:13:34;1.70;;;1.07;;
16393;SDS011;8306;51.128;4.476;2023-04-03T11:16:16;1.87;;;0.87;;
16393;SDS011;8306;51.128;4.476;2023-04-03T11:18:46;1.87;;;1.00;;
16393;SDS011;8306;51.128;4.476;2023-04-03T11:21:34;1.40;;;0.70;;
16393;SDS011;8306;51.128;4.476;2023-04-03T11:23:58;2.43;;;1.23;;
16393;SDS011;8306;51.128;4.476;2023-04-03T11:26:26;1.23;;;0.93;;
16393;SDS011;8306;51.128;4.476;2023-04-03T11:29:11;1.77;;;0.80;;
16393;SDS011;8306;51.128;4.476;2023-04-03T11:34:07;1.50;;;0.90;;
16393;SDS011;8306;51.128;4.476;2023-04-03T11:36:32;1.57;;;0.70;;
16393;SDS011;8306;51.128;4.476;2023-04-03T11:39:03;0.80;;;0.63;;
16393;SDS011;8306;51.128;4.476;2023-04-03T11:41:30;1.50;;;0.70;;
16393;SDS011;8306;51.128;4.476;2023-04-03T11:43:58;1.73;;;0.70;;
16393;SDS011;8306;51.128;4.476;2023-04-03T11:57:47;1.00;;;0.60;;
16393;SDS011;8306;51.128;4.476;2023-04-03T12:13:55;1.40;;;0.63;;
16393;SDS011;8306;51.128;4.476;2023-04-03T12:16:21;1.20;;;0.80;;
16393;SDS011;8306;51.128;4.476;2023-04-03T12:26:48;1.60;;;0.87;;
16393;SDS011;8306;51.128;4.476;2023-04-03T12:29:27;1.27;;;0.80;;
16393;SDS011;8306;51.128;4.476;2023-04-03T12:40:43;1.53;;;0.90;;
16393;SDS011;8306;51.128;4.476;2023-04-03T12:45:59;1.17;;;0.63;;
16393;SDS011;8306;51.128;4.476;2023-04-03T12:48:26;1.30;;;0.80;;
16393;SDS011;8306;51.128;4.476;2023-04-03T12:50:52;0.97;;;0.70;;
16393;SDS011;8306;51.128;4.476;2023-04-03T12:53:23;1.43;;;0.80;;
16393;SDS011;8306;51.128;4.476;2023-04-03T12:55:45;1.37;;;0.70;;
16393;SDS011;8306;51.128;4.476;2023-04-03T12:58:24;2.10;;;0.80;;
16393;SDS011;8306;51.128;4.476;2023-04-03T13:00:59;0.93;;;0.60;;
16393;SDS011;8306;51.128;4.476;2023-04-03T13:03:27;3.43;;;0.93;;
16393;SDS011;8306;51.128;4.476;2023-04-03T13:05:55;1.20;;;0.80;;
16393;SDS011;8306;51.128;4.476;2023-04-03T13:08:20;2.17;;;1.00;;
16393;SDS011;8306;51.128;4.476;2023-04-03T13:10:54;0.97;;;0.80;;
16393;SDS011;8306;51.128;4.476;2023-04-03T13:13:19;1.00;;;0.70;;
16393;SDS011;8306;51.128;4.476;2023-04-03T13:15:46;1.73;;;0.90;;
16393;SDS011;8306;51.128;4.476;2023-04-03T13:18:29;0.83;;;0.73;;
16393;SDS011;8306;51.128;4.476;2023-04-03T13:20:51;1.30;;;0.90;;
16393;SDS011;8306;51.128;4.476;2023-04-03T13:23:17;1.30;;;0.90;;
16393;SDS011;8306;51.128;4.476;2023-04-03T13:25:44;1.57;;;0.90;;
16393;SDS011;8306;51.128;4.476;2023-04-03T13:28:11;1.60;;;0.90;;
16393;SDS011;8306;51.128;4.476;2023-04-03T13:30:39;1.57;;;1.00;;
16393;SDS011;8306;51.128;4.476;2023-04-03T13:33:17;1.83;;;1.27;;
16393;SDS011;8306;51.128;4.476;2023-04-03T13:35:36;1.00;;;0.87;;
16393;SDS011;8306;51.128;4.476;2023-04-03T13:38:04;2.03;;;0.90;;
16393;SDS011;8306;51.128;4.476;2023-04-03T13:40:28;1.90;;;0.80;;
16393;SDS011;8306;51.128;4.476;2023-04-03T13:43:05;1.57;;;0.70;;
16393;SDS011;8306;51.128;4.476;2023-04-03T13:45:34;1.50;;;0.90;;
16393;SDS011;8306;51.128;4.476;2023-04-03T13:48:10;2.10;;;0.90;;
16393;SDS011;8306;51.128;4.476;2023-04-03T13:50:50;1.93;;;0.73;;
16393;SDS011;8306;51.128;4.476;2023-04-03T13:53:16;1.23;;;0.87;;
16393;SDS011;8306;51.128;4.476;2023-04-03T13:55:53;5.60;;;1.03;;
16393;SDS011;8306;51.128;4.476;2023-04-03T13:58:28;1.00;;;0.80;;
16393;SDS011;8306;51.128;4.476;2023-04-03T14:03:28;1.60;;;0.83;;
16393;SDS011;8306;51.128;4.476;2023-04-03T14:05:52;0.77;;;0.70;;
16393;SDS011;8306;51.128;4.476;2023-04-03T14:08:18;0.97;;;0.77;;
16393;SDS011;8306;51.128;4.476;2023-04-03T14:10:45;2.63;;;0.80;;
16393;SDS011;8306;51.128;4.476;2023-04-03T14:13:12;2.50;;;0.90;;
16393;SDS011;8306;51.128;4.476;2023-04-03T14:15:38;1.33;;;0.90;;
16393;SDS011;8306;51.128;4.476;2023-04-03T14:18:04;1.47;;;0.83;;
16393;SDS011;8306;51.128;4.476;2023-04-03T14:20:31;1.80;;;0.70;;
16393;SDS011;8306;51.128;4.476;2023-04-03T14:22:57;1.63;;;0.80;;
16393;SDS011;8306;51.128;4.476;2023-04-03T14:25:24;2.20;;;0.87;;
16393;SDS011;8306;51.128;4.476;2023-04-03T14:27:51;1.40;;;0.70;;
16393;SDS011;8306;51.128;4.476;2023-04-03T14:30:18;1.10;;;0.90;;
16393;SDS011;8306;51.128;4.476;2023-04-03T14:32:43;0.97;;;0.70;;
16393;SDS011;8306;51.128;4.476;2023-04-03T14:35:10;1.80;;;0.80;;
16393;SDS011;8306;51.128;4.476;2023-04-03T14:37:36;2.03;;;0.70;;
16393;SDS011;8306;51.128;4.476;2023-04-03T14:40:03;1.40;;;1.00;;
16393;SDS011;8306;51.128;4.476;2023-04-03T14:42:31;1.43;;;0.90;;
16393;SDS011;8306;51.128;4.476;2023-04-03T14:44:56;1.20;;;0.70;;
16393;SDS011;8306;51.128;4.476;2023-04-03T14:47:23;1.70;;;0.80;;
16393;SDS011;8306;51.128;4.476;2023-04-03T14:49:49;2.40;;;0.90;;
16393;SDS011;8306;51.128;4.476;2023-04-03T14:52:17;1.37;;;0.70;;
16393;SDS011;8306;51.128;4.476;2023-04-03T14:54:44;2.00;;;0.77;;
16393;SDS011;8306;51.128;4.476;2023-04-03T14:57:11;0.77;;;0.70;;
16393;SDS011;8306;51.128;4.476;2023-04-03T14:59:37;1.53;;;1.10;;
16393;SDS011;8306;51.128;4.476;2023-04-03T15:02:10;0.63;;;0.63;;
16393;SDS011;8306;51.128;4.476;2023-04-03T15:04:30;1.57;;;1.00;;
16393;SDS011;8306;51.128;4.476;2023-04-03T15:06:57;1.80;;;0.87;;
16393;SDS011;8306;51.128;4.476;2023-04-03T15:09:24;3.03;;;1.10;;
16393;SDS011;8306;51.128;4.476;2023-04-03T15:11:50;2.53;;;2.03;;
16393;SDS011;8306;51.128;4.476;2023-04-03T15:14:16;1.20;;;1.10;;
16393;SDS011;8306;51.128;4.476;2023-04-03T15:16:42;1.57;;;1.00;;
16393;SDS011;8306;51.128;4.476;2023-04-03T15:19:09;2.30;;;2.10;;
16393;SDS011;8306;51.128;4.476;2023-04-03T15:21:35;1.17;;;1.03;;
16393;SDS011;8306;51.128;4.476;2023-04-03T15:24:02;2.67;;;1.00;;
16393;SDS011;8306;51.128;4.476;2023-04-03T15:26:28;1.40;;;0.90;;
16393;SDS011;8306;51.128;4.476;2023-04-03T15:28:55;1.23;;;0.80;;
16393;SDS011;8306;51.128;4.476;2023-04-03T15:31:21;0.80;;;0.77;;
16393;SDS011;8306;51.128;4.476;2023-04-03T15:33:48;1.57;;;0.90;;
16393;SDS011;8306;51.128;4.476;2023-04-03T15:36:14;1.90;;;1.10;;
16393;SDS011;8306;51.128;4.476;2023-04-03T15:38:41;1.77;;;0.87;;
16393;SDS011;8306;51.128;4.476;2023-04-03T15:41:07;2.30;;;1.00;;
16393;SDS011;8306;51.128;4.476;2023-04-03T15:43:34;1.57;;;1.03;;
16393;SDS011;8306;51.128;4.476;2023-04-03T15:46:00;1.73;;;0.90;;
16393;SDS011;8306;51.128;4.476;2023-04-03T15:48:27;2.37;;;0.90;;
16393;SDS011;8306;51.128;4.476;2023-04-03T15:50:53;1.20;;;0.90;;
16393;SDS011;8306;51.128;4.476;2023-04-03T15:53:20;2.30;;;0.80;;
16393;SDS011;8306;51.128;4.476;2023-04-03T15:55:46;1.67;;;1.03;;
16393;SDS011;8306;51.128;4.476;2023-04-03T15:58:13;4.57;;;1.20;;
16393;SDS011;8306;51.128;4.476;2023-04-03T16:00:39;2.00;;;0.97;;
16393;SDS011;8306;51.128;4.476;2023-04-03T16:03:08;1.63;;;0.90;;
16393;SDS011;8306;51.128;4.476;2023-04-03T16:05:32;1.27;;;1.00;;
16393;SDS011;8306;51.128;4.476;2023-04-03T16:07:59;1.27;;;0.90;;
16393;SDS011;8306;51.128;4.476;2023-04-03T16:10:25;3.27;;;1.00;;
16393;SDS011;8306;51.128;4.476;2023-04-03T16:12:51;1.43;;;1.10;;
16393;SDS011;8306;51.128;4.476;2023-04-03T16:15:18;1.83;;;1.00;;
16393;SDS011;8306;51.128;4.476;2023-04-03T16:17:44;2.97;;;0.80;;
16393;SDS011;8306;51.128;4.476;2023-04-03T16:20:11;1.50;;;0.97;;
16393;SDS011;8306;51.128;4.476;2023-04-03T16:22:38;2.83;;;0.83;;
16393;SDS011;8306;51.128;4.476;2023-04-03T16:25:05;1.50;;;0.80;;
16393;SDS011;8306;51.128;4.476;2023-04-03T16:27:31;1.97;;;1.00;;
16393;SDS011;8306;51.128;4.476;2023-04-03T16:29:58;1.50;;;1.00;;